createdAt,value
2023-02-05T00:02:18.271Z,1.05
2023-02-05T00:07:39.103Z,1.10
2023-02-05T00:12:59.799Z,1.00
2023-02-05T00:18:20.608Z,1.10
2023-02-05T00:23:41.952Z,1.27
2023-02-05T00:29:02.898Z,0.93
2023-02-05T00:34:23.821Z,1.30
2023-02-05T00:39:44.510Z,1.05
2023-02-05T00:45:07.318Z,0.90
2023-02-05T00:50:28.856Z,1.10
2023-02-05T00:55:51.008Z,0.77
2023-02-05T01:01:14.291Z,1.27
2023-02-05T01:06:35.550Z,1.60
2023-02-05T01:11:56.206Z,1.10
2023-02-05T01:17:17.254Z,1.00
2023-02-05T01:22:38.176Z,1.23
2023-02-05T01:28:00.214Z,1.15
2023-02-05T01:33:21.557Z,1.50
2023-02-05T01:38:42.143Z,1.25
2023-02-05T01:44:19.204Z,1.45
2023-02-05T01:49:43.737Z,1.63
2023-02-05T01:55:07.630Z,2.22
2023-02-05T02:00:28.725Z,1.27
2023-02-05T02:05:49.431Z,1.40
2023-02-05T02:11:13.749Z,1.05
2023-02-05T02:16:36.901Z,1.40
2023-02-05T02:22:29.857Z,1.33
2023-02-05T02:28:00.214Z,1.58
2023-02-05T02:33:23.462Z,1.60
2023-02-05T02:39:28.356Z,2.03
2023-02-05T02:44:56.833Z,1.30
2023-02-05T02:50:35.402Z,1.63
2023-02-05T02:55:58.740Z,1.33
2023-02-05T03:01:24.201Z,7.03
2023-02-05T03:06:48.524Z,2.50
2023-02-05T03:12:09.544Z,1.75
2023-02-05T03:17:31.967Z,1.67
2023-02-05T03:22:53.058Z,1.52
2023-02-05T03:28:14.329Z,1.45
2023-02-05T03:34:11.498Z,1.83
2023-02-05T03:39:48.507Z,2.10
2023-02-05T03:45:21.464Z,1.05
2023-02-05T03:50:54.339Z,2.17
2023-02-05T03:56:22.310Z,1.30
2023-02-05T04:01:45.655Z,1.55
2023-02-05T04:07:08.106Z,1.70
2023-02-05T04:12:30.342Z,3.70
2023-02-05T04:17:51.048Z,4.85
2023-02-05T04:23:13.164Z,3.30
2023-02-05T04:28:36.346Z,2.33
2023-02-05T04:33:59.534Z,1.65
2023-02-05T04:39:20.836Z,1.60
2023-02-05T04:44:41.495Z,1.38
2023-02-05T04:50:02.221Z,1.63
2023-02-05T04:55:23.117Z,1.40
2023-02-05T05:00:43.898Z,1.67
2023-02-05T05:06:05.801Z,2.15
2023-02-05T05:11:26.645Z,2.28
2023-02-05T05:16:49.629Z,2.05
2023-02-05T05:22:10.377Z,2.65
2023-02-05T05:27:31.199Z,2.28
2023-02-05T05:32:52.014Z,2.65
2023-02-05T05:38:12.887Z,2.78
2023-02-05T05:43:48.736Z,2.50
2023-02-05T05:49:09.729Z,2.10
2023-02-05T05:54:30.697Z,1.90
2023-02-05T05:59:51.220Z,1.50
2023-02-05T06:05:12.975Z,1.80
2023-02-05T06:10:34.194Z,2.53
2023-02-05T06:15:55.048Z,2.00
2023-02-05T06:21:15.676Z,2.30
2023-02-05T06:26:36.452Z,2.10
2023-02-05T06:31:57.054Z,2.47
2023-02-05T06:37:17.823Z,1.80
2023-02-05T06:42:38.720Z,1.63
2023-02-05T06:47:59.692Z,2.20
2023-02-05T06:53:20.606Z,1.80
2023-02-05T06:58:41.217Z,1.35
2023-02-05T07:04:02.300Z,1.85
2023-02-05T07:09:23.815Z,1.70
2023-02-05T07:14:44.684Z,2.17
2023-02-05T07:20:06.246Z,1.48
2023-02-05T07:25:27.151Z,2.00
2023-02-05T07:30:49.805Z,2.30
2023-02-05T07:36:12.219Z,2.35
2023-02-05T07:41:33.417Z,3.55
2023-02-05T07:46:54.603Z,3.55
2023-02-05T07:52:15.836Z,4.95
2023-02-05T07:57:36.533Z,2.72
2023-02-05T08:02:57.400Z,7.35
2023-02-05T08:08:18.326Z,5.45
2023-02-05T08:13:39.015Z,2.60
2023-02-05T08:18:59.715Z,5.05
2023-02-05T08:24:20.495Z,3.80
2023-02-05T08:29:41.900Z,2.13
2023-02-05T08:35:02.792Z,3.33
2023-02-05T08:40:24.289Z,3.72
2023-02-05T08:45:48.421Z,2.63
2023-02-05T08:51:10.681Z,2.80
2023-02-05T08:56:31.900Z,1.83
2023-02-05T09:01:52.421Z,1.80
2023-02-05T09:07:13.229Z,1.65
2023-02-05T09:12:34.241Z,1.98
2023-02-05T09:17:56.397Z,1.92
2023-02-05T09:23:18.769Z,1.70
2023-02-05T09:28:40.268Z,2.92
2023-02-05T09:34:05.701Z,1.42
2023-02-05T09:40:11.980Z,2.63
2023-02-05T09:45:16.372Z,2.15
2023-02-05T09:50:38.133Z,2.17
2023-02-05T09:56:01.649Z,13.65
2023-02-05T10:01:43.701Z,2.38
2023-02-05T10:07:24.200Z,1.23
2023-02-05T10:12:51.938Z,1.60
2023-02-05T10:18:54.521Z,1.55
2023-02-05T10:24:36.894Z,1.17
2023-02-05T10:30:04.164Z,1.75
2023-02-05T10:35:44.418Z,0.90
2023-02-05T10:41:13.284Z,1.23
2023-02-05T10:46:36.584Z,1.20
2023-02-05T10:51:57.418Z,2.67
2023-02-05T10:57:20.984Z,1.30
2023-02-05T11:02:47.532Z,0.80
2023-02-05T11:08:38.951Z,1.17
2023-02-05T11:14:07.014Z,1.92
2023-02-05T11:19:29.039Z,0.90
2023-02-05T11:24:50.101Z,0.80
2023-02-05T11:30:49.955Z,1.33
2023-02-05T11:36:21.609Z,1.20
2023-02-05T11:41:48.662Z,0.70
2023-02-05T11:47:09.765Z,0.90
2023-02-05T11:52:37.668Z,0.70
2023-02-05T11:58:01.489Z,0.80
2023-02-05T12:03:22.741Z,1.10
2023-02-05T12:08:52.220Z,1.15
2023-02-05T12:14:23.027Z,0.80
2023-02-05T12:19:58.469Z,0.93
2023-02-05T12:25:27.574Z,0.77
2023-02-05T12:30:52.549Z,0.98
2023-02-05T12:36:16.197Z,0.90
2023-02-05T12:41:50.336Z,1.08
2023-02-05T12:47:29.517Z,1.70
2023-02-05T12:52:56.244Z,1.55
2023-02-05T12:58:20.513Z,1.23
2023-02-05T13:03:48.455Z,1.50
2023-02-05T13:09:17.606Z,1.48
2023-02-05T13:14:43.539Z,1.17
2023-02-05T13:20:12.332Z,1.20
2023-02-05T13:26:04.631Z,1.63
2023-02-05T13:31:33.203Z,2.40
2023-02-05T13:37:22.883Z,1.52
2023-02-05T13:43:02.429Z,1.67
2023-02-05T13:48:41.971Z,1.27
2023-02-05T13:54:31.311Z,2.93
2023-02-05T13:59:54.407Z,1.70
2023-02-05T14:05:26.962Z,1.55
2023-02-05T14:11:00.657Z,1.73
2023-02-05T14:16:24.530Z,2.05
2023-02-05T14:21:45.107Z,3.72
2023-02-05T14:27:31.344Z,1.40
2023-02-05T14:32:52.138Z,1.70
2023-02-05T14:38:35.690Z,2.88
2023-02-05T14:44:30.239Z,1.23
2023-02-05T14:49:53.225Z,1.60
2023-02-05T14:55:13.864Z,1.27
2023-02-05T15:00:44.647Z,1.02
2023-02-05T15:06:14.032Z,1.38
2023-02-05T15:11:53.394Z,1.27
2023-02-05T15:17:16.142Z,1.65
2023-02-05T15:22:53.731Z,2.17
2023-02-05T15:28:24.636Z,1.70
2023-02-05T15:33:56.601Z,1.90
2023-02-05T15:39:31.243Z,2.40
2023-02-05T15:44:52.565Z,2.33
2023-02-05T15:50:14.925Z,1.95
2023-02-05T15:55:35.858Z,2.70
2023-02-05T16:00:57.422Z,2.83
2023-02-05T16:06:20.259Z,7.05
2023-02-05T16:11:43.051Z,5.03
2023-02-05T16:17:17.197Z,2.35
2023-02-05T16:22:42.833Z,4.85
2023-02-05T16:28:11.242Z,1.48
2023-02-05T16:33:40.973Z,1.75
2023-02-05T16:39:04.774Z,2.33
2023-02-05T16:44:33.236Z,3.50
2023-02-05T16:49:54.614Z,3.15
2023-02-05T16:55:42.848Z,3.33
2023-02-05T17:01:04.274Z,3.03
2023-02-05T17:06:34.166Z,3.65
2023-02-05T17:17:17.459Z,3.92
2023-02-05T17:22:38.260Z,24.45
2023-02-05T17:28:01.653Z,11.43
2023-02-05T17:33:24.483Z,9.43
2023-02-05T17:38:46.692Z,5.47
2023-02-05T17:44:11.651Z,5.38
2023-02-05T17:49:33.677Z,5.28
2023-02-05T17:54:54.374Z,4.10
2023-02-05T18:00:27.680Z,5.20
2023-02-05T18:05:49.309Z,4.35
2023-02-05T18:11:10.738Z,7.25
2023-02-05T18:16:31.857Z,5.88
2023-02-05T18:21:53.305Z,7.43
2023-02-05T18:27:14.031Z,9.85
2023-02-05T18:32:34.932Z,8.13
2023-02-05T18:37:55.644Z,7.68
2023-02-05T18:43:16.638Z,8.32
2023-02-05T18:48:40.760Z,7.82
2023-02-05T18:54:01.717Z,12.18
2023-02-05T18:59:26.127Z,51.53
2023-02-05T19:04:52.050Z,73.88
2023-02-05T19:10:12.751Z,25.65
2023-02-05T19:15:34.751Z,14.75
2023-02-05T19:20:55.635Z,14.75
2023-02-05T19:26:19.318Z,13.70
2023-02-05T19:31:40.496Z,18.70
2023-02-05T19:37:01.884Z,24.65
2023-02-05T19:42:23.111Z,26.58
2023-02-05T19:47:44.065Z,22.50
2023-02-05T19:53:05.298Z,18.98
2023-02-05T19:58:25.938Z,16.65
2023-02-05T20:03:46.849Z,15.52
2023-02-05T20:09:10.882Z,15.73
2023-02-05T20:14:31.600Z,12.77
2023-02-05T20:19:59.650Z,18.02
2023-02-05T20:25:27.068Z,11.73
2023-02-05T20:31:06.241Z,13.02
2023-02-05T20:36:28.338Z,13.50
2023-02-05T20:41:51.520Z,13.77
2023-02-05T20:47:14.567Z,11.20
2023-02-05T20:52:35.266Z,9.25
2023-02-05T20:57:56.029Z,8.20
2023-02-05T21:03:17.060Z,7.88
2023-02-05T21:08:43.393Z,8.30
2023-02-05T21:14:06.997Z,7.15
2023-02-05T21:19:27.977Z,5.07
2023-02-05T21:24:49.634Z,4.43
2023-02-05T21:30:11.309Z,4.18
2023-02-05T21:35:34.535Z,4.40
2023-02-05T21:40:55.410Z,8.13
2023-02-05T21:46:16.636Z,6.30
2023-02-05T21:51:37.746Z,5.97
2023-02-05T21:56:58.368Z,6.25
2023-02-05T22:02:19.032Z,6.00
2023-02-05T22:07:39.958Z,8.88
2023-02-05T22:13:00.534Z,8.80
2023-02-05T22:18:21.261Z,8.75
2023-02-05T22:23:43.885Z,9.70
2023-02-05T22:29:07.203Z,10.70
2023-02-05T22:34:28.156Z,9.77
2023-02-05T22:39:48.877Z,8.60
2023-02-05T22:45:09.818Z,9.10
2023-02-05T22:50:30.630Z,10.68
2023-02-05T22:55:51.274Z,10.52
2023-02-05T23:01:24.482Z,10.43
2023-02-05T23:06:45.309Z,8.60
2023-02-05T23:12:07.103Z,9.85
2023-02-05T23:17:28.101Z,8.95
2023-02-05T23:22:48.619Z,9.90
2023-02-05T23:28:09.547Z,9.15
2023-02-05T23:33:30.651Z,10.48
2023-02-05T23:38:51.390Z,9.57
2023-02-05T23:44:18.259Z,9.45
2023-02-05T23:49:38.864Z,10.02
2023-02-05T23:54:59.493Z,12.50
